sensor_id;sensor_type;location;lat;lon;timestamp;P1;durP1;ratioP1;P2;durP2;ratioP2
67721;SDS011;58309;45.292;11.820;2023-01-15T00:01:15;60.38;;;36.25;;
67721;SDS011;58309;45.292;11.820;2023-01-15T00:03:49;52.47;;;33.72;;
67721;SDS011;58309;45.292;11.820;2023-01-15T00:06:16;53.78;;;32.97;;
67721;SDS011;58309;45.292;11.820;2023-01-15T00:08:42;52.63;;;32.55;;
67721;SDS011;58309;45.292;11.820;2023-01-15T00:11:10;49.17;;;30.80;;
67721;SDS011;58309;45.292;11.820;2023-01-15T00:13:36;46.83;;;29.92;;
67721;SDS011;58309;45.292;11.820;2023-01-15T00:16:03;51.65;;;32.83;;
67721;SDS011;58309;45.292;11.820;2023-01-15T00:18:32;43.95;;;28.90;;
67721;SDS011;58309;45.292;11.820;2023-01-15T00:21:02;45.17;;;30.60;;
67721;SDS011;58309;45.292;11.820;2023-01-15T00:23:30;41.45;;;29.02;;
67721;SDS011;58309;45.292;11.820;2023-01-15T00:26:18;43.20;;;27.20;;
67721;SDS011;58309;45.292;11.820;2023-01-15T00:29:04;45.55;;;27.77;;
67721;SDS011;58309;45.292;11.820;2023-01-15T00:31:31;40.90;;;27.40;;
67721;SDS011;58309;45.292;11.820;2023-01-15T00:33:58;40.22;;;26.45;;
67721;SDS011;58309;45.292;11.820;2023-01-15T00:36:23;37.92;;;26.13;;
67721;SDS011;58309;45.292;11.820;2023-01-15T00:38:50;39.58;;;26.15;;
67721;SDS011;58309;45.292;11.820;2023-01-15T00:41:16;43.40;;;26.92;;
67721;SDS011;58309;45.292;11.820;2023-01-15T00:43:41;36.78;;;26.00;;
67721;SDS011;58309;45.292;11.820;2023-01-15T00:46:07;42.20;;;26.58;;
67721;SDS011;58309;45.292;11.820;2023-01-15T00:48:33;39.10;;;26.42;;
67721;SDS011;58309;45.292;11.820;2023-01-15T00:50:59;43.47;;;27.13;;
67721;SDS011;58309;45.292;11.820;2023-01-15T00:53:25;38.35;;;26.27;;
67721;SDS011;58309;45.292;11.820;2023-01-15T00:55:50;40.83;;;27.13;;
67721;SDS011;58309;45.292;11.820;2023-01-15T00:58:16;39.95;;;27.15;;
67721;SDS011;58309;45.292;11.820;2023-01-15T01:00:41;38.30;;;26.45;;
67721;SDS011;58309;45.292;11.820;2023-01-15T01:03:07;41.25;;;27.45;;
67721;SDS011;58309;45.292;11.820;2023-01-15T01:05:32;40.28;;;26.60;;
67721;SDS011;58309;45.292;11.820;2023-01-15T01:07:58;38.78;;;26.63;;
67721;SDS011;58309;45.292;11.820;2023-01-15T01:10:27;39.60;;;26.13;;
67721;SDS011;58309;45.292;11.820;2023-01-15T01:12:52;38.10;;;26.27;;
67721;SDS011;58309;45.292;11.820;2023-01-15T01:15:18;38.50;;;26.27;;
67721;SDS011;58309;45.292;11.820;2023-01-15T01:17:44;39.30;;;25.83;;
67721;SDS011;58309;45.292;11.820;2023-01-15T01:20:11;38.00;;;24.73;;
67721;SDS011;58309;45.292;11.820;2023-01-15T01:22:38;36.33;;;25.63;;
67721;SDS011;58309;45.292;11.820;2023-01-15T01:25:04;36.65;;;23.88;;
67721;SDS011;58309;45.292;11.820;2023-01-15T01:27:30;38.60;;;26.00;;
67721;SDS011;58309;45.292;11.820;2023-01-15T01:29:56;40.25;;;26.48;;
67721;SDS011;58309;45.292;11.820;2023-01-15T01:32:21;39.15;;;26.38;;
67721;SDS011;58309;45.292;11.820;2023-01-15T01:34:47;39.03;;;27.85;;
67721;SDS011;58309;45.292;11.820;2023-01-15T01:37:12;42.88;;;25.88;;
67721;SDS011;58309;45.292;11.820;2023-01-15T01:39:38;38.17;;;24.27;;
67721;SDS011;58309;45.292;11.820;2023-01-15T01:42:04;33.97;;;24.02;;
67721;SDS011;58309;45.292;11.820;2023-01-15T01:47:14;35.78;;;23.27;;
67721;SDS011;58309;45.292;11.820;2023-01-15T01:49:53;36.47;;;23.05;;
67721;SDS011;58309;45.292;11.820;2023-01-15T01:52:28;32.75;;;23.05;;
67721;SDS011;58309;45.292;11.820;2023-01-15T01:54:57;33.63;;;22.63;;
67721;SDS011;58309;45.292;11.820;2023-01-15T01:57:24;36.17;;;21.75;;
67721;SDS011;58309;45.292;11.820;2023-01-15T01:59:49;30.25;;;20.83;;
67721;SDS011;58309;45.292;11.820;2023-01-15T02:02:16;32.20;;;20.45;;
67721;SDS011;58309;45.292;11.820;2023-01-15T02:04:44;26.65;;;19.80;;
67721;SDS011;58309;45.292;11.820;2023-01-15T02:07:11;25.95;;;18.08;;
67721;SDS011;58309;45.292;11.820;2023-01-15T02:09:36;22.05;;;16.35;;
67721;SDS011;58309;45.292;11.820;2023-01-15T02:12:14;23.00;;;16.30;;
67721;SDS011;58309;45.292;11.820;2023-01-15T02:15:05;25.95;;;16.80;;
67721;SDS011;58309;45.292;11.820;2023-01-15T02:17:40;26.35;;;18.50;;
67721;SDS011;58309;45.292;11.820;2023-01-15T02:20:30;26.70;;;18.65;;
67721;SDS011;58309;45.292;11.820;2023-01-15T02:23:03;28.80;;;19.90;;
67721;SDS011;58309;45.292;11.820;2023-01-15T02:25:54;32.13;;;20.33;;
67721;SDS011;58309;45.292;11.820;2023-01-15T02:28:38;29.77;;;19.20;;
67721;SDS011;58309;45.292;11.820;2023-01-15T02:31:42;27.25;;;18.98;;
67721;SDS011;58309;45.292;11.820;2023-01-15T02:36:51;25.63;;;18.85;;
67721;SDS011;58309;45.292;11.820;2023-01-15T02:39:21;27.15;;;19.25;;
67721;SDS011;58309;45.292;11.820;2023-01-15T02:41:49;30.60;;;19.63;;
67721;SDS011;58309;45.292;11.820;2023-01-15T02:44:18;28.83;;;19.08;;
67721;SDS011;58309;45.292;11.820;2023-01-15T02:46:47;29.10;;;19.10;;
67721;SDS011;58309;45.292;11.820;2023-01-15T02:49:15;25.25;;;18.52;;
67721;SDS011;58309;45.292;11.820;2023-01-15T02:51:43;28.05;;;18.92;;
67721;SDS011;58309;45.292;11.820;2023-01-15T02:54:15;26.33;;;18.33;;
67721;SDS011;58309;45.292;11.820;2023-01-15T02:56:44;26.85;;;18.77;;
67721;SDS011;58309;45.292;11.820;2023-01-15T02:59:14;27.13;;;18.65;;
67721;SDS011;58309;45.292;11.820;2023-01-15T03:01:47;28.23;;;18.88;;
67721;SDS011;58309;45.292;11.820;2023-01-15T03:04:34;27.55;;;19.83;;
67721;SDS011;58309;45.292;11.820;2023-01-15T03:07:22;28.35;;;19.55;;
67721;SDS011;58309;45.292;11.820;2023-01-15T03:10:06;32.92;;;19.92;;
67721;SDS011;58309;45.292;11.820;2023-01-15T03:20:48;37.03;;;20.17;;
67721;SDS011;58309;45.292;11.820;2023-01-15T03:23:16;27.98;;;19.77;;
67721;SDS011;58309;45.292;11.820;2023-01-15T03:25:47;30.92;;;19.05;;
67721;SDS011;58309;45.292;11.820;2023-01-15T03:28:14;28.23;;;19.70;;
67721;SDS011;58309;45.292;11.820;2023-01-15T03:30:43;29.27;;;20.73;;
67721;SDS011;58309;45.292;11.820;2023-01-15T03:33:09;34.55;;;20.73;;
67721;SDS011;58309;45.292;11.820;2023-01-15T03:38:20;29.10;;;19.92;;
67721;SDS011;58309;45.292;11.820;2023-01-15T03:43:16;26.40;;;19.58;;
67721;SDS011;58309;45.292;11.820;2023-01-15T03:46:04;29.13;;;19.83;;
67721;SDS011;58309;45.292;11.820;2023-01-15T03:48:38;30.42;;;19.73;;
67721;SDS011;58309;45.292;11.820;2023-01-15T03:51:17;28.13;;;19.63;;
67721;SDS011;58309;45.292;11.820;2023-01-15T03:53:56;30.38;;;19.77;;
67721;SDS011;58309;45.292;11.820;2023-01-15T03:56:29;29.10;;;19.95;;
67721;SDS011;58309;45.292;11.820;2023-01-15T03:59:01;30.30;;;20.65;;
67721;SDS011;58309;45.292;11.820;2023-01-15T04:01:36;31.60;;;20.25;;
67721;SDS011;58309;45.292;11.820;2023-01-15T04:04:05;30.70;;;20.15;;
67721;SDS011;58309;45.292;11.820;2023-01-15T04:06:33;29.27;;;20.55;;
67721;SDS011;58309;45.292;11.820;2023-01-15T04:09:05;30.35;;;20.42;;
67721;SDS011;58309;45.292;11.820;2023-01-15T04:11:33;28.40;;;19.80;;
67721;SDS011;58309;45.292;11.820;2023-01-15T04:13:58;31.45;;;19.70;;
67721;SDS011;58309;45.292;11.820;2023-01-15T04:16:25;28.40;;;19.33;;
67721;SDS011;58309;45.292;11.820;2023-01-15T04:18:52;24.35;;;18.30;;
67721;SDS011;58309;45.292;11.820;2023-01-15T04:21:18;27.08;;;18.33;;
67721;SDS011;58309;45.292;11.820;2023-01-15T04:23:45;27.42;;;18.77;;
67721;SDS011;58309;45.292;11.820;2023-01-15T04:26:11;26.30;;;17.67;;
67721;SDS011;58309;45.292;11.820;2023-01-15T04:28:37;27.95;;;18.88;;
67721;SDS011;58309;45.292;11.820;2023-01-15T04:31:03;28.10;;;19.67;;
67721;SDS011;58309;45.292;11.820;2023-01-15T04:33:28;29.83;;;19.80;;
67721;SDS011;58309;45.292;11.820;2023-01-15T04:35:54;30.60;;;20.20;;
67721;SDS011;58309;45.292;11.820;2023-01-15T04:38:22;30.85;;;20.33;;
67721;SDS011;58309;45.292;11.820;2023-01-15T04:40:48;29.80;;;21.17;;
67721;SDS011;58309;45.292;11.820;2023-01-15T04:43:32;32.97;;;22.02;;
67721;SDS011;58309;45.292;11.820;2023-01-15T04:46:19;33.47;;;22.65;;
67721;SDS011;58309;45.292;11.820;2023-01-15T04:48:45;35.78;;;24.05;;
67721;SDS011;58309;45.292;11.820;2023-01-15T04:51:11;34.92;;;23.65;;
67721;SDS011;58309;45.292;11.820;2023-01-15T04:53:36;35.67;;;24.08;;
67721;SDS011;58309;45.292;11.820;2023-01-15T04:56:03;40.90;;;24.98;;
67721;SDS011;58309;45.292;11.820;2023-01-15T04:58:29;36.10;;;25.45;;
67721;SDS011;58309;45.292;11.820;2023-01-15T05:00:56;38.60;;;26.17;;
67721;SDS011;58309;45.292;11.820;2023-01-15T05:03:21;39.78;;;26.10;;
67721;SDS011;58309;45.292;11.820;2023-01-15T05:05:47;34.17;;;24.48;;
67721;SDS011;58309;45.292;11.820;2023-01-15T05:08:14;42.08;;;26.55;;
67721;SDS011;58309;45.292;11.820;2023-01-15T05:10:40;40.53;;;26.60;;
67721;SDS011;58309;45.292;11.820;2023-01-15T05:13:05;47.53;;;28.23;;
67721;SDS011;58309;45.292;11.820;2023-01-15T05:15:31;39.25;;;27.55;;
67721;SDS011;58309;45.292;11.820;2023-01-15T05:17:57;38.10;;;27.15;;
67721;SDS011;58309;45.292;11.820;2023-01-15T05:20:22;39.55;;;27.70;;
67721;SDS011;58309;45.292;11.820;2023-01-15T05:22:48;39.92;;;27.85;;
67721;SDS011;58309;45.292;11.820;2023-01-15T05:25:13;43.40;;;28.17;;
67721;SDS011;58309;45.292;11.820;2023-01-15T05:27:38;42.63;;;28.73;;
67721;SDS011;58309;45.292;11.820;2023-01-15T05:30:05;43.92;;;28.48;;
67721;SDS011;58309;45.292;11.820;2023-01-15T05:32:31;45.63;;;29.63;;
67721;SDS011;58309;45.292;11.820;2023-01-15T05:34:57;45.58;;;30.27;;
67721;SDS011;58309;45.292;11.820;2023-01-15T05:37:23;50.33;;;31.52;;
67721;SDS011;58309;45.292;11.820;2023-01-15T05:39:49;46.95;;;30.50;;
67721;SDS011;58309;45.292;11.820;2023-01-15T05:42:14;47.95;;;32.15;;
67721;SDS011;58309;45.292;11.820;2023-01-15T05:44:40;48.75;;;30.80;;
67721;SDS011;58309;45.292;11.820;2023-01-15T05:47:05;44.78;;;32.38;;
67721;SDS011;58309;45.292;11.820;2023-01-15T05:49:32;46.00;;;31.48;;
67721;SDS011;58309;45.292;11.820;2023-01-15T05:51:59;48.47;;;31.60;;
67721;SDS011;58309;45.292;11.820;2023-01-15T05:54:26;51.60;;;32.55;;
67721;SDS011;58309;45.292;11.820;2023-01-15T05:56:54;47.72;;;32.00;;
67721;SDS011;58309;45.292;11.820;2023-01-15T05:59:20;48.72;;;31.38;;
67721;SDS011;58309;45.292;11.820;2023-01-15T06:01:48;48.80;;;31.30;;
67721;SDS011;58309;45.292;11.820;2023-01-15T06:04:14;44.83;;;30.77;;
67721;SDS011;58309;45.292;11.820;2023-01-15T06:06:42;43.17;;;30.42;;
67721;SDS011;58309;45.292;11.820;2023-01-15T06:09:07;47.67;;;31.08;;
67721;SDS011;58309;45.292;11.820;2023-01-15T06:11:33;47.00;;;31.88;;
67721;SDS011;58309;45.292;11.820;2023-01-15T06:13:59;47.35;;;31.40;;
67721;SDS011;58309;45.292;11.820;2023-01-15T06:16:25;46.72;;;32.42;;
67721;SDS011;58309;45.292;11.820;2023-01-15T06:18:50;51.10;;;31.98;;
67721;SDS011;58309;45.292;11.820;2023-01-15T06:21:16;46.58;;;32.60;;
67721;SDS011;58309;45.292;11.820;2023-01-15T06:23:42;47.30;;;31.90;;
67721;SDS011;58309;45.292;11.820;2023-01-15T06:26:12;46.60;;;33.25;;
67721;SDS011;58309;45.292;11.820;2023-01-15T06:28:39;49.28;;;33.47;;
67721;SDS011;58309;45.292;11.820;2023-01-15T06:31:06;49.63;;;32.63;;
67721;SDS011;58309;45.292;11.820;2023-01-15T06:33:33;45.88;;;31.67;;
67721;SDS011;58309;45.292;11.820;2023-01-15T06:36:01;47.58;;;31.65;;
67721;SDS011;58309;45.292;11.820;2023-01-15T06:38:31;47.58;;;32.42;;
67721;SDS011;58309;45.292;11.820;2023-01-15T06:40:57;46.83;;;32.08;;
67721;SDS011;58309;45.292;11.820;2023-01-15T06:43:26;49.33;;;32.72;;
67721;SDS011;58309;45.292;11.820;2023-01-15T06:46:11;46.45;;;31.20;;
67721;SDS011;58309;45.292;11.820;2023-01-15T06:48:56;47.53;;;30.77;;
67721;SDS011;58309;45.292;11.820;2023-01-15T06:51:22;47.35;;;30.63;;
67721;SDS011;58309;45.292;11.820;2023-01-15T06:53:48;49.05;;;32.20;;
67721;SDS011;58309;45.292;11.820;2023-01-15T06:56:13;47.70;;;32.13;;
67721;SDS011;58309;45.292;11.820;2023-01-15T06:58:40;46.15;;;31.55;;
67721;SDS011;58309;45.292;11.820;2023-01-15T07:01:09;45.03;;;31.77;;
67721;SDS011;58309;45.292;11.820;2023-01-15T07:03:36;48.58;;;30.67;;
67721;SDS011;58309;45.292;11.820;2023-01-15T07:06:09;47.53;;;32.05;;
67721;SDS011;58309;45.292;11.820;2023-01-15T07:08:36;48.90;;;31.58;;
67721;SDS011;58309;45.292;11.820;2023-01-15T07:11:03;49.80;;;33.40;;
67721;SDS011;58309;45.292;11.820;2023-01-15T07:13:31;51.83;;;33.88;;
67721;SDS011;58309;45.292;11.820;2023-01-15T07:15:58;48.72;;;32.63;;
67721;SDS011;58309;45.292;11.820;2023-01-15T07:20:54;49.22;;;31.63;;
67721;SDS011;58309;45.292;11.820;2023-01-15T07:23:22;51.63;;;32.80;;
67721;SDS011;58309;45.292;11.820;2023-01-15T07:25:49;43.95;;;31.95;;
67721;SDS011;58309;45.292;11.820;2023-01-15T07:28:15;51.72;;;32.60;;
67721;SDS011;58309;45.292;11.820;2023-01-15T07:30:41;52.10;;;34.08;;
67721;SDS011;58309;45.292;11.820;2023-01-15T07:33:07;53.22;;;35.55;;
67721;SDS011;58309;45.292;11.820;2023-01-15T07:35:32;64.30;;;43.60;;
67721;SDS011;58309;45.292;11.820;2023-01-15T07:38:00;63.30;;;40.58;;
67721;SDS011;58309;45.292;11.820;2023-01-15T07:40:26;52.28;;;36.95;;
67721;SDS011;58309;45.292;11.820;2023-01-15T07:42:52;52.15;;;34.80;;
67721;SDS011;58309;45.292;11.820;2023-01-15T07:45:37;48.30;;;33.55;;
67721;SDS011;58309;45.292;11.820;2023-01-15T07:48:22;46.78;;;31.70;;
67721;SDS011;58309;45.292;11.820;2023-01-15T07:51:07;49.50;;;31.27;;
67721;SDS011;58309;45.292;11.820;2023-01-15T07:53:33;44.92;;;32.15;;
67721;SDS011;58309;45.292;11.820;2023-01-15T07:55:58;49.08;;;32.95;;
67721;SDS011;58309;45.292;11.820;2023-01-15T07:58:24;48.83;;;33.50;;
67721;SDS011;58309;45.292;11.820;2023-01-15T08:00:49;50.45;;;33.22;;
67721;SDS011;58309;45.292;11.820;2023-01-15T08:03:15;62.65;;;36.30;;
67721;SDS011;58309;45.292;11.820;2023-01-15T08:05:40;52.60;;;34.33;;
67721;SDS011;58309;45.292;11.820;2023-01-15T08:08:13;52.80;;;33.67;;
67721;SDS011;58309;45.292;11.820;2023-01-15T08:10:39;52.72;;;35.97;;
67721;SDS011;58309;45.292;11.820;2023-01-15T08:13:24;52.55;;;34.92;;
67721;SDS011;58309;45.292;11.820;2023-01-15T08:16:08;45.30;;;31.77;;
67721;SDS011;58309;45.292;11.820;2023-01-15T08:18:35;47.08;;;30.67;;
67721;SDS011;58309;45.292;11.820;2023-01-15T08:21:01;48.28;;;33.30;;
67721;SDS011;58309;45.292;11.820;2023-01-15T08:23:26;46.20;;;31.95;;
67721;SDS011;58309;45.292;11.820;2023-01-15T08:25:52;50.20;;;30.90;;
67721;SDS011;58309;45.292;11.820;2023-01-15T08:28:18;44.35;;;29.33;;
67721;SDS011;58309;45.292;11.820;2023-01-15T08:30:43;40.70;;;28.65;;
67721;SDS011;58309;45.292;11.820;2023-01-15T08:33:09;43.00;;;29.77;;
67721;SDS011;58309;45.292;11.820;2023-01-15T08:35:34;45.15;;;30.25;;
67721;SDS011;58309;45.292;11.820;2023-01-15T08:38:04;43.95;;;29.88;;
67721;SDS011;58309;45.292;11.820;2023-01-15T08:40:30;43.60;;;31.08;;
67721;SDS011;58309;45.292;11.820;2023-01-15T08:42:56;41.17;;;29.95;;
67721;SDS011;58309;45.292;11.820;2023-01-15T08:45:22;44.03;;;29.83;;
67721;SDS011;58309;45.292;11.820;2023-01-15T08:47:48;40.47;;;26.75;;
67721;SDS011;58309;45.292;11.820;2023-01-15T08:50:13;35.40;;;24.00;;
67721;SDS011;58309;45.292;11.820;2023-01-15T08:52:39;35.90;;;22.92;;
67721;SDS011;58309;45.292;11.820;2023-01-15T08:55:05;37.08;;;25.55;;
67721;SDS011;58309;45.292;11.820;2023-01-15T08:57:31;37.78;;;25.67;;
67721;SDS011;58309;45.292;11.820;2023-01-15T08:59:57;34.55;;;24.08;;
67721;SDS011;58309;45.292;11.820;2023-01-15T09:02:22;33.13;;;22.50;;
67721;SDS011;58309;45.292;11.820;2023-01-15T09:04:48;30.10;;;21.45;;
67721;SDS011;58309;45.292;11.820;2023-01-15T09:07:13;32.80;;;21.33;;
67721;SDS011;58309;45.292;11.820;2023-01-15T09:09:40;28.90;;;20.70;;
67721;SDS011;58309;45.292;11.820;2023-01-15T09:12:06;28.38;;;21.50;;
67721;SDS011;58309;45.292;11.820;2023-01-15T09:14:31;31.40;;;22.27;;
67721;SDS011;58309;45.292;11.820;2023-01-15T09:16:57;32.45;;;22.02;;
67721;SDS011;58309;45.292;11.820;2023-01-15T09:19:22;30.80;;;21.00;;
67721;SDS011;58309;45.292;11.820;2023-01-15T09:21:48;29.98;;;20.45;;
67721;SDS011;58309;45.292;11.820;2023-01-15T09:24:14;28.00;;;19.27;;
67721;SDS011;58309;45.292;11.820;2023-01-15T09:26:39;28.00;;;18.98;;
67721;SDS011;58309;45.292;11.820;2023-01-15T09:29:06;26.70;;;18.90;;
67721;SDS011;58309;45.292;11.820;2023-01-15T09:31:33;28.05;;;18.90;;
67721;SDS011;58309;45.292;11.820;2023-01-15T09:33:59;29.08;;;20.02;;
67721;SDS011;58309;45.292;11.820;2023-01-15T09:36:31;31.98;;;21.42;;
67721;SDS011;58309;45.292;11.820;2023-01-15T09:38:59;27.90;;;21.00;;
67721;SDS011;58309;45.292;11.820;2023-01-15T09:44:36;32.53;;;22.42;;
67721;SDS011;58309;45.292;11.820;2023-01-15T09:47:24;30.05;;;22.27;;
67721;SDS011;58309;45.292;11.820;2023-01-15T09:55:55;35.38;;;22.58;;
67721;SDS011;58309;45.292;11.820;2023-01-15T09:58:37;34.25;;;23.30;;
67721;SDS011;58309;45.292;11.820;2023-01-15T10:01:04;34.38;;;23.40;;
67721;SDS011;58309;45.292;11.820;2023-01-15T10:09:22;34.25;;;22.70;;
67721;SDS011;58309;45.292;11.820;2023-01-15T10:11:59;31.00;;;22.00;;
67721;SDS011;58309;45.292;11.820;2023-01-15T10:17:59;35.28;;;22.33;;
67721;SDS011;58309;45.292;11.820;2023-01-15T10:26:14;30.48;;;22.13;;
67721;SDS011;58309;45.292;11.820;2023-01-15T10:37:22;39.45;;;25.58;;
67721;SDS011;58309;45.292;11.820;2023-01-15T10:40:27;35.30;;;25.75;;
67721;SDS011;58309;45.292;11.820;2023-01-15T10:45:53;38.63;;;28.23;;
67721;SDS011;58309;45.292;11.820;2023-01-15T10:48:28;42.38;;;30.55;;
67721;SDS011;58309;45.292;11.820;2023-01-15T10:51:12;44.45;;;29.15;;
67721;SDS011;58309;45.292;11.820;2023-01-15T10:56:11;44.65;;;31.30;;
67721;SDS011;58309;45.292;11.820;2023-01-15T10:58:44;42.85;;;30.23;;
67721;SDS011;58309;45.292;11.820;2023-01-15T11:01:17;44.28;;;29.73;;
67721;SDS011;58309;45.292;11.820;2023-01-15T11:03:47;41.58;;;30.10;;
67721;SDS011;58309;45.292;11.820;2023-01-15T11:06:14;45.92;;;32.00;;
67721;SDS011;58309;45.292;11.820;2023-01-15T11:08:43;43.00;;;30.45;;
67721;SDS011;58309;45.292;11.820;2023-01-15T11:11:20;47.33;;;32.58;;
67721;SDS011;58309;45.292;11.820;2023-01-15T11:14:38;49.63;;;34.75;;
67721;SDS011;58309;45.292;11.820;2023-01-15T11:17:27;63.92;;;39.05;;
67721;SDS011;58309;45.292;11.820;2023-01-15T11:20:15;55.47;;;36.65;;
67721;SDS011;58309;45.292;11.820;2023-01-15T11:22:42;51.38;;;33.67;;
67721;SDS011;58309;45.292;11.820;2023-01-15T11:25:08;45.63;;;33.55;;
67721;SDS011;58309;45.292;11.820;2023-01-15T11:27:35;45.83;;;33.28;;
67721;SDS011;58309;45.292;11.820;2023-01-15T11:30:02;48.38;;;33.63;;
67721;SDS011;58309;45.292;11.820;2023-01-15T11:32:34;48.83;;;34.70;;
67721;SDS011;58309;45.292;11.820;2023-01-15T11:35:22;53.15;;;36.05;;
67721;SDS011;58309;45.292;11.820;2023-01-15T11:37:46;52.63;;;36.75;;
67721;SDS011;58309;45.292;11.820;2023-01-15T11:40:16;57.35;;;37.35;;
67721;SDS011;58309;45.292;11.820;2023-01-15T11:42:48;52.85;;;35.65;;
67721;SDS011;58309;45.292;11.820;2023-01-15T11:45:33;49.08;;;35.08;;
67721;SDS011;58309;45.292;11.820;2023-01-15T11:48:21;49.60;;;35.10;;
67721;SDS011;58309;45.292;11.820;2023-01-15T11:53:43;51.40;;;35.13;;
67721;SDS011;58309;45.292;11.820;2023-01-15T11:56:18;59.22;;;38.15;;
67721;SDS011;58309;45.292;11.820;2023-01-15T11:58:54;56.72;;;37.47;;
67721;SDS011;58309;45.292;11.820;2023-01-15T12:01:32;56.13;;;37.00;;
67721;SDS011;58309;45.292;11.820;2023-01-15T12:04:01;52.85;;;36.35;;
67721;SDS011;58309;45.292;11.820;2023-01-15T12:06:30;48.10;;;33.58;;
67721;SDS011;58309;45.292;11.820;2023-01-15T12:32:57;70.75;;;45.60;;
67721;SDS011;58309;45.292;11.820;2023-01-15T12:35:31;76.50;;;48.25;;
67721;SDS011;58309;45.292;11.820;2023-01-15T12:38:11;76.55;;;49.53;;
67721;SDS011;58309;45.292;11.820;2023-01-15T12:43:18;98.00;;;56.22;;
67721;SDS011;58309;45.292;11.820;2023-01-15T12:46:09;75.53;;;47.67;;
67721;SDS011;58309;45.292;11.820;2023-01-15T12:48:43;89.82;;;52.83;;
67721;SDS011;58309;45.292;11.820;2023-01-15T12:51:18;89.28;;;52.30;;
67721;SDS011;58309;45.292;11.820;2023-01-15T12:53:58;78.10;;;48.58;;
67721;SDS011;58309;45.292;11.820;2023-01-15T12:59:33;105.22;;;58.15;;
67721;SDS011;58309;45.292;11.820;2023-01-15T13:02:20;110.22;;;61.28;;
67721;SDS011;58309;45.292;11.820;2023-01-15T13:07:55;86.63;;;55.60;;
67721;SDS011;58309;45.292;11.820;2023-01-15T13:10:54;92.18;;;53.47;;
67721;SDS011;58309;45.292;11.820;2023-01-15T13:13:21;89.07;;;51.58;;
67721;SDS011;58309;45.292;11.820;2023-01-15T13:21:15;84.45;;;49.15;;
67721;SDS011;58309;45.292;11.820;2023-01-15T13:32:24;73.80;;;46.83;;
67721;SDS011;58309;45.292;11.820;2023-01-15T13:38:02;69.03;;;42.95;;
67721;SDS011;58309;45.292;11.820;2023-01-15T13:40:32;76.05;;;47.58;;
67721;SDS011;58309;45.292;11.820;2023-01-15T13:43:03;75.78;;;47.83;;
67721;SDS011;58309;45.292;11.820;2023-01-15T13:45:40;73.72;;;47.67;;
67721;SDS011;58309;45.292;11.820;2023-01-15T13:48:13;69.72;;;46.92;;
67721;SDS011;58309;45.292;11.820;2023-01-15T13:50:42;65.88;;;46.45;;
67721;SDS011;58309;45.292;11.820;2023-01-15T13:53:22;74.32;;;49.10;;
67721;SDS011;58309;45.292;11.820;2023-01-15T13:55:59;73.55;;;48.70;;
67721;SDS011;58309;45.292;11.820;2023-01-15T13:58:31;67.88;;;45.70;;
67721;SDS011;58309;45.292;11.820;2023-01-15T14:06:49;68.53;;;46.97;;
67721;SDS011;58309;45.292;11.820;2023-01-15T14:20:59;71.28;;;47.35;;
67721;SDS011;58309;45.292;11.820;2023-01-15T14:34:31;74.78;;;48.85;;
67721;SDS011;58309;45.292;11.820;2023-01-15T14:37:00;65.82;;;44.42;;
67721;SDS011;58309;45.292;11.820;2023-01-15T14:42:10;72.15;;;47.40;;
67721;SDS011;58309;45.292;11.820;2023-01-15T14:47:44;84.15;;;52.28;;
67721;SDS011;58309;45.292;11.820;2023-01-15T14:59:14;101.00;;;56.38;;
67721;SDS011;58309;45.292;11.820;2023-01-15T15:07:16;91.53;;;51.55;;
67721;SDS011;58309;45.292;11.820;2023-01-15T15:23:07;82.78;;;50.90;;
67721;SDS011;58309;45.292;11.820;2023-01-15T15:25:39;81.20;;;52.55;;
67721;SDS011;58309;45.292;11.820;2023-01-15T15:28:10;86.43;;;53.35;;
67721;SDS011;58309;45.292;11.820;2023-01-15T15:30:39;86.43;;;53.30;;
67721;SDS011;58309;45.292;11.820;2023-01-15T15:33:09;81.53;;;51.47;;
67721;SDS011;58309;45.292;11.820;2023-01-15T15:35:40;94.32;;;57.47;;
67721;SDS011;58309;45.292;11.820;2023-01-15T15:38:14;81.07;;;51.60;;
67721;SDS011;58309;45.292;11.820;2023-01-15T15:40:43;80.25;;;49.65;;
67721;SDS011;58309;45.292;11.820;2023-01-15T15:43:12;79.75;;;50.97;;
67721;SDS011;58309;45.292;11.820;2023-01-15T15:46:24;81.20;;;48.70;;
67721;SDS011;58309;45.292;11.820;2023-01-15T15:49:13;92.53;;;51.20;;
67721;SDS011;58309;45.292;11.820;2023-01-15T15:51:46;84.10;;;48.53;;
67721;SDS011;58309;45.292;11.820;2023-01-15T15:54:23;69.53;;;43.95;;
67721;SDS011;58309;45.292;11.820;2023-01-15T15:56:58;76.28;;;45.97;;
67721;SDS011;58309;45.292;11.820;2023-01-15T15:59:34;73.70;;;45.90;;
67721;SDS011;58309;45.292;11.820;2023-01-15T16:04:46;66.90;;;41.83;;
67721;SDS011;58309;45.292;11.820;2023-01-15T16:07:24;69.20;;;43.67;;
67721;SDS011;58309;45.292;11.820;2023-01-15T16:09:57;73.15;;;44.58;;
67721;SDS011;58309;45.292;11.820;2023-01-15T16:12:28;70.05;;;44.53;;
67721;SDS011;58309;45.292;11.820;2023-01-15T16:14:55;81.07;;;47.88;;
67721;SDS011;58309;45.292;11.820;2023-01-15T16:17:22;77.68;;;46.47;;
67721;SDS011;58309;45.292;11.820;2023-01-15T16:19:51;73.18;;;44.72;;
67721;SDS011;58309;45.292;11.820;2023-01-15T16:22:19;77.45;;;47.42;;
67721;SDS011;58309;45.292;11.820;2023-01-15T16:24:52;72.25;;;46.17;;
67721;SDS011;58309;45.292;11.820;2023-01-15T16:27:19;68.35;;;44.83;;
67721;SDS011;58309;45.292;11.820;2023-01-15T16:29:49;77.38;;;49.33;;
67721;SDS011;58309;45.292;11.820;2023-01-15T16:32:19;80.00;;;50.45;;
67721;SDS011;58309;45.292;11.820;2023-01-15T16:34:48;73.05;;;44.00;;
67721;SDS011;58309;45.292;11.820;2023-01-15T16:37:24;77.63;;;47.67;;
67721;SDS011;58309;45.292;11.820;2023-01-15T16:39:54;78.47;;;48.45;;
67721;SDS011;58309;45.292;11.820;2023-01-15T16:45:06;72.95;;;46.17;;
67721;SDS011;58309;45.292;11.820;2023-01-15T16:48:00;75.47;;;45.03;;
67721;SDS011;58309;45.292;11.820;2023-01-15T16:50:27;72.22;;;44.70;;
67721;SDS011;58309;45.292;11.820;2023-01-15T16:52:55;72.82;;;45.10;;
67721;SDS011;58309;45.292;11.820;2023-01-15T16:58:13;76.57;;;46.55;;
67721;SDS011;58309;45.292;11.820;2023-01-15T17:00:41;76.68;;;47.42;;
67721;SDS011;58309;45.292;11.820;2023-01-15T17:03:12;77.47;;;49.60;;
67721;SDS011;58309;45.292;11.820;2023-01-15T17:05:50;78.13;;;50.30;;
67721;SDS011;58309;45.292;11.820;2023-01-15T17:08:29;78.65;;;49.97;;
67721;SDS011;58309;45.292;11.820;2023-01-15T17:10:59;80.82;;;51.15;;
67721;SDS011;58309;45.292;11.820;2023-01-15T17:13:30;85.68;;;50.80;;
67721;SDS011;58309;45.292;11.820;2023-01-15T17:18:46;76.25;;;47.78;;
67721;SDS011;58309;45.292;11.820;2023-01-15T17:21:14;70.32;;;45.92;;
67721;SDS011;58309;45.292;11.820;2023-01-15T17:23:45;76.53;;;48.28;;
67721;SDS011;58309;45.292;11.820;2023-01-15T17:26:19;78.47;;;51.10;;
67721;SDS011;58309;45.292;11.820;2023-01-15T17:28:46;89.53;;;54.75;;
67721;SDS011;58309;45.292;11.820;2023-01-15T17:31:23;83.50;;;52.10;;
67721;SDS011;58309;45.292;11.820;2023-01-15T17:33:52;84.85;;;51.25;;